createdAt,value
2019-03-31T00:01:13.350Z,5.10
2019-03-31T00:04:19.691Z,5.08
2019-03-31T00:07:26.092Z,5.47
2019-03-31T00:10:32.634Z,12.53
2019-03-31T00:13:39.143Z,16.75
2019-03-31T00:16:46.651Z,14.30
2019-03-31T00:19:52.967Z,16.97
2019-03-31T00:22:59.279Z,6.47
2019-03-31T00:26:05.603Z,13.88
2019-03-31T00:29:11.815Z,11.12
2019-03-31T00:32:18.340Z,6.53
2019-03-31T00:35:24.621Z,7.80
2019-03-31T00:38:30.880Z,8.70
2019-03-31T00:41:37.264Z,7.87
2019-03-31T00:44:43.625Z,8.15
2019-03-31T00:47:49.992Z,7.15
2019-03-31T00:50:56.363Z,7.70
2019-03-31T00:54:02.634Z,8.73
2019-03-31T00:57:09.031Z,6.45
2019-03-31T01:00:36.896Z,8.18
2019-03-31T01:03:45.176Z,6.65
2019-03-31T01:06:53.999Z,7.58
2019-03-31T01:10:00.579Z,7.58
2019-03-31T01:13:07.563Z,7.80
2019-03-31T01:16:14.453Z,8.00
2019-03-31T01:19:21.977Z,6.75
2019-03-31T01:22:28.356Z,7.22
2019-03-31T01:25:35.191Z,7.22
2019-03-31T01:28:41.723Z,7.17
2019-03-31T01:31:50.602Z,8.60
2019-03-31T01:34:56.499Z,8.38
2019-03-31T01:38:03.022Z,7.58
2019-03-31T01:41:09.395Z,9.38
2019-03-31T01:44:15.618Z,7.28
2019-03-31T01:47:22.304Z,6.85
2019-03-31T01:50:29.907Z,7.53
2019-03-31T01:53:36.256Z,6.65
2019-03-31T01:56:44.765Z,7.47
2019-03-31T01:59:50.535Z,7.40
2019-03-31T02:02:56.834Z,7.65
2019-03-31T02:06:04.327Z,7.90
2019-03-31T02:09:10.878Z,8.48
2019-03-31T02:12:17.135Z,7.08
2019-03-31T02:15:23.503Z,7.35
2019-03-31T02:18:29.958Z,8.05
2019-03-31T02:21:36.252Z,8.08
2019-03-31T02:24:42.519Z,8.63
2019-03-31T02:27:48.783Z,8.80
2019-03-31T02:30:55.053Z,9.53
2019-03-31T02:34:01.345Z,8.30
2019-03-31T02:37:07.798Z,6.75
2019-03-31T02:40:14.200Z,8.25
2019-03-31T02:43:20.483Z,8.95
2019-03-31T02:46:26.754Z,8.48
2019-03-31T02:49:33.175Z,8.93
2019-03-31T02:52:39.469Z,7.62
2019-03-31T02:55:46.113Z,9.35
2019-03-31T02:58:54.789Z,8.45
2019-03-31T03:02:02.753Z,9.58
2019-03-31T03:05:19.693Z,7.80
2019-03-31T03:08:19.821Z,8.35
2019-03-31T03:11:27.745Z,7.70
2019-03-31T03:14:37.681Z,8.10
2019-03-31T03:17:44.009Z,10.25
2019-03-31T03:20:50.271Z,7.87
2019-03-31T03:23:56.888Z,7.95
2019-03-31T03:31:24.493Z,9.03
2019-03-31T03:34:30.731Z,9.90
2019-03-31T03:37:36.974Z,10.72
2019-03-31T03:40:43.351Z,6.90
2019-03-31T03:43:55.739Z,8.53
2019-03-31T03:46:57.668Z,7.53
2019-03-31T03:50:04.108Z,8.48
2019-03-31T03:53:10.477Z,10.82
2019-03-31T03:56:16.833Z,8.08
2019-03-31T03:59:23.136Z,8.23
2019-03-31T04:02:29.681Z,8.83
2019-03-31T04:05:36.051Z,10.80
2019-03-31T04:08:42.315Z,10.90
2019-03-31T04:11:48.576Z,8.88
2019-03-31T04:14:54.844Z,7.83
2019-03-31T04:18:01.221Z,9.20
2019-03-31T04:21:07.586Z,8.53
2019-03-31T04:24:13.948Z,9.03
2019-03-31T04:27:20.227Z,9.28
2019-03-31T04:30:26.599Z,7.72
2019-03-31T04:33:49.626Z,7.87
2019-03-31T04:36:40.658Z,8.45
2019-03-31T04:39:46.963Z,9.80
2019-03-31T04:42:53.300Z,9.78
2019-03-31T04:45:59.575Z,9.25
2019-03-31T04:49:05.836Z,9.03
2019-03-31T04:52:12.331Z,11.00
2019-03-31T04:55:18.572Z,10.88
2019-03-31T04:58:24.983Z,12.55
2019-03-31T05:01:31.314Z,12.68
2019-03-31T05:04:37.677Z,13.30
2019-03-31T05:07:44.160Z,12.75
2019-03-31T05:10:50.426Z,13.15
2019-03-31T05:13:56.735Z,12.30
2019-03-31T05:17:02.952Z,13.48
2019-03-31T05:20:41.900Z,14.13
2019-03-31T05:23:48.261Z,11.70
2019-03-31T05:26:54.519Z,12.65
2019-03-31T05:30:00.784Z,15.43
2019-03-31T05:33:07.277Z,12.63
2019-03-31T05:36:13.631Z,13.08
2019-03-31T05:39:19.900Z,12.95
2019-03-31T05:42:26.272Z,14.35
2019-03-31T05:45:32.734Z,15.32
2019-03-31T05:48:40.174Z,14.23
2019-03-31T05:51:46.507Z,13.88
2019-03-31T05:54:52.768Z,13.98
2019-03-31T05:57:59.037Z,12.33
2019-03-31T06:01:05.523Z,12.78
2019-03-31T06:04:11.914Z,9.40
2019-03-31T06:07:18.144Z,9.10
2019-03-31T06:10:24.407Z,9.03
2019-03-31T06:13:30.796Z,10.38
2019-03-31T06:16:37.658Z,7.50
2019-03-31T06:19:44.040Z,7.22
2019-03-31T06:22:50.438Z,6.85
2019-03-31T06:25:56.664Z,6.95
2019-03-31T06:29:02.975Z,6.90
2019-03-31T06:32:09.423Z,6.80
2019-03-31T06:35:15.787Z,5.37
2019-03-31T06:38:22.055Z,5.15
2019-03-31T06:41:28.416Z,5.05
2019-03-31T06:44:37.995Z,4.78
2019-03-31T06:47:42.699Z,4.87
2019-03-31T06:50:48.956Z,4.70
2019-03-31T06:53:55.319Z,4.28
2019-03-31T06:57:01.587Z,4.12
2019-03-31T07:00:09.027Z,4.53
2019-03-31T07:03:15.467Z,4.28
2019-03-31T07:06:21.867Z,4.08
2019-03-31T07:09:39.468Z,4.62
2019-03-31T07:12:45.779Z,4.62
2019-03-31T07:15:52.131Z,4.53
2019-03-31T07:18:58.472Z,3.70
2019-03-31T07:22:04.848Z,3.92
2019-03-31T07:25:13.104Z,11.22
2019-03-31T07:28:20.683Z,4.80
2019-03-31T07:31:27.127Z,4.35
2019-03-31T07:34:33.527Z,4.83
2019-03-31T07:37:47.216Z,4.33
2019-03-31T07:40:48.341Z,4.80
2019-03-31T07:43:54.831Z,7.25
2019-03-31T07:47:01.105Z,3.67
2019-03-31T07:50:08.520Z,3.15
2019-03-31T07:53:14.874Z,5.35
2019-03-31T07:56:21.379Z,4.20
2019-03-31T07:59:27.895Z,4.10
2019-03-31T08:02:34.291Z,4.17
2019-03-31T08:05:40.695Z,5.12
2019-03-31T08:08:47.027Z,4.12
2019-03-31T08:11:53.551Z,3.45
2019-03-31T08:14:59.942Z,3.77
2019-03-31T08:18:06.235Z,3.92
2019-03-31T08:21:12.751Z,3.65
2019-03-31T08:24:19.199Z,13.83
2019-03-31T08:27:25.592Z,15.63
2019-03-31T08:30:31.968Z,9.10
2019-03-31T08:33:39.409Z,4.97
2019-03-31T08:36:45.828Z,5.35
2019-03-31T08:39:52.147Z,6.42
2019-03-31T08:43:00.024Z,9.03
2019-03-31T08:46:06.472Z,5.50
2019-03-31T08:49:12.904Z,6.92
2019-03-31T08:52:19.404Z,3.27
2019-03-31T08:55:25.779Z,5.03
2019-03-31T08:58:32.219Z,7.15
2019-03-31T09:01:38.691Z,4.30
2019-03-31T09:04:45.047Z,5.40
2019-03-31T09:07:51.324Z,4.58
2019-03-31T09:10:57.935Z,7.15
2019-03-31T09:14:04.527Z,6.17
2019-03-31T09:17:11.130Z,4.33
2019-03-31T09:20:18.197Z,7.12
2019-03-31T09:23:24.505Z,4.80
2019-03-31T09:26:30.880Z,5.08
2019-03-31T09:29:37.259Z,15.98
2019-03-31T09:32:43.637Z,7.40
2019-03-31T09:35:50.088Z,6.28
2019-03-31T09:38:56.463Z,14.80
2019-03-31T09:42:02.887Z,22.75
2019-03-31T09:45:09.920Z,9.80
2019-03-31T09:48:16.295Z,37.25
2019-03-31T09:51:22.756Z,17.35
2019-03-31T09:54:30.363Z,17.87
2019-03-31T09:57:36.837Z,16.42
2019-03-31T10:00:52.010Z,10.25
2019-03-31T10:03:58.363Z,8.58
2019-03-31T10:07:04.775Z,11.63
2019-03-31T10:10:16.767Z,8.80
2019-03-31T10:13:23.124Z,12.55
2019-03-31T10:16:29.589Z,13.03
2019-03-31T10:19:36.151Z,11.30
2019-03-31T10:22:42.672Z,9.60
2019-03-31T10:25:49.004Z,9.78
2019-03-31T10:28:55.475Z,5.97
2019-03-31T10:32:02.904Z,10.40
2019-03-31T10:35:09.636Z,8.63
2019-03-31T10:38:16.160Z,10.65
2019-03-31T10:41:22.583Z,7.85
2019-03-31T10:44:30.028Z,5.42
2019-03-31T10:47:36.241Z,5.70
2019-03-31T10:50:43.539Z,6.72
2019-03-31T10:53:50.167Z,6.40
2019-03-31T10:56:56.484Z,8.50
2019-03-31T11:00:02.767Z,6.20
2019-03-31T11:03:10.484Z,7.67
2019-03-31T11:06:16.825Z,5.83
2019-03-31T11:09:23.187Z,5.15
2019-03-31T11:12:29.589Z,5.00
2019-03-31T11:15:35.969Z,5.80
2019-03-31T11:18:42.450Z,5.17
2019-03-31T11:22:16.395Z,6.70
2019-03-31T11:25:27.504Z,4.28
2019-03-31T11:28:30.727Z,4.75
2019-03-31T11:31:37.063Z,3.70
2019-03-31T11:34:43.361Z,4.45
2019-03-31T11:37:49.739Z,4.50
2019-03-31T11:40:56.143Z,6.92
2019-03-31T11:44:02.580Z,3.77
2019-03-31T11:47:09.008Z,3.72
2019-03-31T11:50:15.720Z,5.15
2019-03-31T11:53:22.204Z,4.25
2019-03-31T11:56:28.464Z,2.90
2019-03-31T11:59:34.928Z,4.28
2019-03-31T12:02:41.408Z,3.52
2019-03-31T12:05:47.958Z,2.98
2019-03-31T12:08:54.307Z,2.47
2019-03-31T12:12:00.584Z,4.25
2019-03-31T12:15:09.418Z,2.95
2019-03-31T12:18:15.892Z,5.35
2019-03-31T12:21:22.356Z,2.42
2019-03-31T12:24:28.716Z,5.65
2019-03-31T12:27:35.170Z,3.00
2019-03-31T12:30:41.567Z,2.60
2019-03-31T12:33:47.931Z,3.62
2019-03-31T12:36:54.223Z,3.17
2019-03-31T12:40:00.512Z,2.65
2019-03-31T12:43:06.983Z,3.65
2019-03-31T12:46:13.315Z,3.08
2019-03-31T12:49:19.721Z,3.40
2019-03-31T12:52:25.956Z,4.10
2019-03-31T12:55:32.316Z,3.05
2019-03-31T12:58:38.584Z,2.42
2019-03-31T13:01:45.067Z,3.40
2019-03-31T13:04:51.430Z,2.22
2019-03-31T13:07:57.797Z,6.22
2019-03-31T13:11:04.272Z,1.92
2019-03-31T13:14:10.647Z,2.37
2019-03-31T13:17:17.016Z,2.42
2019-03-31T13:20:23.271Z,3.33
2019-03-31T13:23:29.576Z,1.85
2019-03-31T13:26:35.911Z,3.33
2019-03-31T13:29:42.388Z,3.40
2019-03-31T13:32:47.415Z,2.63
2019-03-31T13:35:53.616Z,2.20
2019-03-31T13:39:00.125Z,1.90
2019-03-31T13:42:06.351Z,3.35
2019-03-31T13:45:13.024Z,2.27
2019-03-31T13:48:19.287Z,1.95
2019-03-31T13:51:25.556Z,2.70
2019-03-31T13:54:31.867Z,1.32
2019-03-31T13:57:39.839Z,1.30
2019-03-31T14:00:46.117Z,1.85
2019-03-31T14:03:52.515Z,2.35
2019-03-31T14:06:58.743Z,1.55
2019-03-31T14:10:05.683Z,2.00
2019-03-31T14:13:13.098Z,2.52
2019-03-31T14:16:19.392Z,2.42
2019-03-31T14:19:25.704Z,2.65
2019-03-31T14:22:31.916Z,3.12
2019-03-31T14:25:38.184Z,2.02
2019-03-31T14:28:44.458Z,2.25
2019-03-31T14:31:52.123Z,2.42
2019-03-31T14:34:58.663Z,2.02
2019-03-31T14:38:05.001Z,1.37
2019-03-31T14:41:11.367Z,2.65
2019-03-31T14:44:17.666Z,1.20
2019-03-31T14:47:23.902Z,2.30
2019-03-31T14:50:34.984Z,2.02
2019-03-31T14:53:41.247Z,1.07
2019-03-31T14:56:47.548Z,1.35
2019-03-31T14:59:53.927Z,1.25
2019-03-31T15:03:00.247Z,1.62
2019-03-31T15:06:06.574Z,1.27
2019-03-31T15:09:12.782Z,1.90
2019-03-31T15:12:19.166Z,1.40
2019-03-31T15:15:25.571Z,2.55
2019-03-31T15:18:31.899Z,1.57
2019-03-31T15:21:44.089Z,1.70
2019-03-31T15:24:47.367Z,1.47
2019-03-31T15:27:53.771Z,2.08
2019-03-31T15:31:00.172Z,0.90
2019-03-31T15:34:06.411Z,1.47
2019-03-31T15:37:12.814Z,2.67
2019-03-31T15:40:19.290Z,2.37
2019-03-31T15:43:25.615Z,1.17
2019-03-31T15:46:31.920Z,1.40
2019-03-31T15:49:38.146Z,1.27
2019-03-31T15:52:44.559Z,1.42
2019-03-31T15:55:50.932Z,2.20
2019-03-31T15:58:58.396Z,1.12
2019-03-31T16:02:04.786Z,1.55
2019-03-31T16:05:12.982Z,1.67
2019-03-31T16:08:18.831Z,1.02
2019-03-31T16:11:24.587Z,1.82
2019-03-31T16:14:30.343Z,1.55
2019-03-31T16:17:36.195Z,1.82
2019-03-31T16:20:41.944Z,2.00
2019-03-31T16:23:47.799Z,1.35
2019-03-31T16:26:53.471Z,1.60
2019-03-31T16:29:59.218Z,2.10
2019-03-31T16:33:06.987Z,1.15
2019-03-31T16:36:12.366Z,2.05
2019-03-31T16:39:18.119Z,1.60
2019-03-31T16:42:23.879Z,0.95
2019-03-31T16:45:31.340Z,2.45
2019-03-31T16:48:37.235Z,1.22
2019-03-31T16:51:43.057Z,1.65
2019-03-31T16:54:48.776Z,1.12
2019-03-31T16:57:54.496Z,1.05
2019-03-31T17:01:00.153Z,2.05
2019-03-31T17:04:06.211Z,1.25
2019-03-31T17:07:11.863Z,1.12
2019-03-31T17:10:17.659Z,7.28
2019-03-31T17:13:23.683Z,3.60
2019-03-31T17:16:29.537Z,3.35
2019-03-31T17:19:35.284Z,2.98
2019-03-31T17:22:40.823Z,4.37
2019-03-31T17:25:46.544Z,4.30
2019-03-31T17:28:52.534Z,3.05
2019-03-31T17:31:59.227Z,3.98
2019-03-31T17:35:05.295Z,1.72
2019-03-31T17:38:11.059Z,2.60
2019-03-31T17:41:17.171Z,4.00
2019-03-31T17:44:22.980Z,3.10
2019-03-31T17:47:28.937Z,1.72
2019-03-31T17:50:34.827Z,0.85
2019-03-31T17:53:40.552Z,5.20
2019-03-31T17:56:47.231Z,1.62
2019-03-31T17:59:53.083Z,2.72
2019-03-31T18:02:58.947Z,2.98
2019-03-31T18:06:04.735Z,1.32
2019-03-31T18:09:10.543Z,2.35
2019-03-31T18:12:16.300Z,1.30
2019-03-31T18:15:22.055Z,1.40
2019-03-31T18:18:27.807Z,2.47
2019-03-31T18:21:33.711Z,1.92
2019-03-31T18:24:39.537Z,2.02
2019-03-31T18:27:45.395Z,2.83
2019-03-31T18:30:51.086Z,1.95
2019-03-31T18:33:56.943Z,2.33
2019-03-31T18:37:02.643Z,3.50
2019-03-31T18:40:08.724Z,5.75
2019-03-31T18:43:14.580Z,6.92
2019-03-31T18:46:20.460Z,7.65
2019-03-31T18:49:26.394Z,5.30
2019-03-31T18:52:32.138Z,4.10
2019-03-31T18:55:47.547Z,6.47
2019-03-31T18:59:12.339Z,2.42
2019-03-31T19:02:29.399Z,4.03
2019-03-31T19:05:56.959Z,2.30
2019-03-31T19:09:20.249Z,1.17
2019-03-31T19:12:38.779Z,3.37
2019-03-31T19:16:04.011Z,2.37
2019-03-31T19:19:31.854Z,1.98
2019-03-31T19:22:55.880Z,1.10
2019-03-31T19:26:20.893Z,1.65
2019-03-31T19:29:58.028Z,3.02
2019-03-31T19:33:30.062Z,2.87
2019-03-31T19:37:00.847Z,2.55
2019-03-31T19:40:24.084Z,2.35
2019-03-31T19:43:51.848Z,3.92
2019-03-31T19:47:34.785Z,3.90
2019-03-31T19:50:58.458Z,1.45
2019-03-31T19:54:21.620Z,4.17
2019-03-31T19:57:55.325Z,1.37
2019-03-31T20:01:16.643Z,4.95
2019-03-31T20:04:59.643Z,3.20
2019-03-31T20:08:24.358Z,2.95
2019-03-31T20:11:40.792Z,1.57
2019-03-31T20:15:22.006Z,1.65
2019-03-31T20:18:47.996Z,2.12
2019-03-31T20:22:12.739Z,1.30
2019-03-31T20:25:52.559Z,2.08
2019-03-31T20:29:03.943Z,2.65
2019-03-31T20:32:31.923Z,2.90
2019-03-31T20:35:55.506Z,2.83
2019-03-31T20:39:20.120Z,3.83
2019-03-31T20:42:42.735Z,1.72
2019-03-31T20:45:48.599Z,23.50
2019-03-31T20:48:54.663Z,3.35
2019-03-31T20:52:00.399Z,20.20
2019-03-31T20:55:16.112Z,10.40
2019-03-31T20:58:14.431Z,8.58
2019-03-31T21:01:20.223Z,6.08
2019-03-31T21:04:25.974Z,3.12
2019-03-31T21:07:31.739Z,10.08
2019-03-31T21:10:37.690Z,11.18
2019-03-31T21:13:43.485Z,4.78
2019-03-31T21:16:49.311Z,3.30
2019-03-31T21:19:55.070Z,3.30
2019-03-31T21:23:01.067Z,2.05
2019-03-31T21:26:06.780Z,2.52
2019-03-31T21:29:12.571Z,1.60
2019-03-31T21:32:18.391Z,3.87
2019-03-31T21:35:24.167Z,6.08
2019-03-31T21:38:29.932Z,5.08
2019-03-31T21:41:35.648Z,2.20
2019-03-31T21:44:41.551Z,2.58
2019-03-31T21:47:47.480Z,3.27
2019-03-31T21:50:53.232Z,3.35
2019-03-31T21:53:59.127Z,6.72
2019-03-31T21:57:04.954Z,3.50
2019-03-31T22:00:11.961Z,2.65
2019-03-31T22:03:19.357Z,2.08
2019-03-31T22:06:25.187Z,3.45
2019-03-31T22:09:30.984Z,2.92
2019-03-31T22:12:36.791Z,2.87
2019-03-31T22:15:42.563Z,2.72
2019-03-31T22:18:48.446Z,1.52
2019-03-31T22:21:54.272Z,2.62
2019-03-31T22:25:00.384Z,5.00
2019-03-31T22:28:06.287Z,3.33
2019-03-31T22:31:12.058Z,5.50
2019-03-31T22:34:18.063Z,3.22
2019-03-31T22:37:23.957Z,1.37
2019-03-31T22:40:29.820Z,2.50
2019-03-31T22:43:35.625Z,4.75
2019-03-31T22:46:53.784Z,2.40
2019-03-31T22:49:48.752Z,2.20
2019-03-31T22:52:54.473Z,2.85
2019-03-31T22:56:00.167Z,1.52
2019-03-31T22:59:05.928Z,4.72
2019-03-31T23:02:11.745Z,1.77
2019-03-31T23:05:17.640Z,3.37
2019-03-31T23:08:24.367Z,3.87
2019-03-31T23:11:31.264Z,2.12
2019-03-31T23:14:37.024Z,3.08
2019-03-31T23:17:47.883Z,3.77
2019-03-31T23:20:53.748Z,3.85
2019-03-31T23:23:59.858Z,3.05
2019-03-31T23:27:05.572Z,3.72
2019-03-31T23:30:12.031Z,3.55
2019-03-31T23:33:18.101Z,3.15
2019-03-31T23:36:23.750Z,3.98
2019-03-31T23:39:29.620Z,2.60
2019-03-31T23:42:35.260Z,2.30
2019-03-31T23:45:41.127Z,3.95
2019-03-31T23:48:46.980Z,3.05
2019-03-31T23:51:52.783Z,2.70
2019-03-31T23:54:58.704Z,3.00
2019-03-31T23:58:04.448Z,2.15
